createdAt,value
2022-09-28T00:04:20.494Z,9.40
2022-09-28T00:08:29.062Z,9.40
2022-09-28T00:12:37.629Z,9.30
2022-09-28T00:16:47.035Z,9.30
2022-09-28T00:21:08.045Z,9.30
2022-09-28T00:25:16.933Z,9.30
2022-09-28T00:29:34.358Z,9.40
2022-09-28T00:33:43.013Z,9.40
2022-09-28T00:37:52.251Z,9.40
2022-09-28T00:42:00.873Z,9.30
2022-09-28T00:46:33.126Z,9.30
2022-09-28T00:50:41.737Z,9.30
2022-09-28T00:54:51.622Z,9.30
2022-09-28T00:59:02.237Z,9.30
2022-09-28T01:03:14.276Z,9.30
2022-09-28T01:07:23.721Z,9.30
2022-09-28T01:11:34.312Z,9.30
2022-09-28T01:15:51.928Z,9.30
2022-09-28T01:20:06.255Z,9.30
2022-09-28T01:24:35.008Z,9.30
2022-09-28T01:28:46.804Z,9.20
2022-09-28T01:32:59.568Z,9.20
2022-09-28T01:37:11.233Z,9.20
2022-09-28T01:41:21.544Z,9.10
2022-09-28T01:45:36.067Z,9.10
2022-09-28T01:49:47.674Z,9.00
2022-09-28T01:53:59.307Z,8.90
2022-09-28T01:58:13.611Z,8.90
2022-09-28T02:02:25.324Z,8.90
2022-09-28T02:06:38.778Z,8.90
2022-09-28T02:10:52.918Z,8.90
2022-09-28T02:15:04.545Z,8.90
2022-09-28T02:19:17.480Z,8.80
2022-09-28T02:23:29.432Z,8.80
2022-09-28T02:28:07.721Z,8.80
2022-09-28T02:32:17.858Z,8.80
2022-09-28T02:36:28.140Z,8.90
2022-09-28T02:40:38.106Z,8.90
2022-09-28T02:44:58.765Z,9.00
2022-09-28T02:49:21.500Z,9.00
2022-09-28T02:53:32.717Z,9.10
2022-09-28T02:57:59.216Z,9.10
2022-09-28T03:02:29.209Z,9.10
2022-09-28T03:06:40.938Z,9.10
2022-09-28T03:10:52.577Z,9.10
2022-09-28T03:15:09.363Z,9.00
2022-09-28T03:19:20.317Z,9.00
2022-09-28T03:23:28.895Z,9.00
2022-09-28T03:27:37.871Z,9.00
2022-09-28T03:31:47.269Z,9.00
2022-09-28T03:35:55.755Z,9.00
2022-09-28T03:40:05.347Z,9.00
2022-09-28T03:44:14.074Z,9.00
2022-09-28T03:48:26.761Z,9.10
2022-09-28T03:52:34.387Z,9.00
2022-09-28T03:56:42.970Z,9.10
2022-09-28T04:00:52.502Z,9.10
2022-09-28T04:05:01.062Z,9.00
2022-09-28T04:09:09.779Z,9.00
2022-09-28T04:13:18.531Z,9.00
2022-09-28T04:17:27.138Z,9.00
2022-09-28T04:21:35.740Z,9.00
2022-09-28T04:25:46.259Z,9.00
2022-09-28T04:29:54.809Z,9.10
2022-09-28T04:34:03.388Z,9.00
2022-09-28T04:38:12.071Z,8.90
2022-09-28T04:42:20.613Z,8.90
2022-09-28T04:46:29.196Z,9.00
2022-09-28T04:50:38.054Z,9.00
2022-09-28T04:54:46.642Z,9.10
2022-09-28T04:58:55.196Z,9.10
2022-09-28T05:03:03.776Z,9.10
2022-09-28T05:07:12.865Z,9.10
2022-09-28T05:11:21.710Z,9.20
2022-09-28T05:15:30.955Z,9.20
2022-09-28T05:20:00.635Z,9.20
2022-09-28T05:24:09.203Z,9.20
2022-09-28T05:28:26.811Z,9.20
2022-09-28T05:32:35.371Z,9.30
2022-09-28T05:36:45.733Z,9.30
2022-09-28T05:40:55.848Z,9.30
2022-09-28T05:45:05.454Z,9.30
2022-09-28T05:49:14.080Z,9.30
2022-09-28T05:53:23.399Z,9.30
2022-09-28T05:57:33.085Z,9.30
2022-09-28T06:01:41.693Z,9.30
2022-09-28T06:05:50.635Z,9.20
2022-09-28T06:09:59.670Z,9.20
2022-09-28T06:14:08.788Z,9.20
2022-09-28T06:18:17.387Z,9.20
2022-09-28T06:22:27.178Z,9.20
2022-09-28T06:26:35.733Z,9.10
2022-09-28T06:30:45.102Z,9.20
2022-09-28T06:34:56.291Z,9.10
2022-09-28T06:39:05.760Z,9.10
2022-09-28T06:43:16.047Z,9.10
2022-09-28T06:47:25.566Z,9.10
2022-09-28T06:51:34.127Z,9.10
2022-09-28T06:55:49.076Z,9.00
2022-09-28T06:59:57.632Z,9.10
2022-09-28T07:04:06.266Z,9.10
2022-09-28T07:08:15.901Z,9.00
2022-09-28T07:12:26.155Z,9.00
2022-09-28T07:17:06.743Z,9.00
2022-09-28T07:20:54.234Z,9.00
2022-09-28T07:24:57.933Z,9.00
2022-09-28T07:29:06.724Z,9.10
2022-09-28T07:33:18.096Z,9.10
2022-09-28T07:37:26.931Z,9.10
2022-09-28T07:41:36.150Z,9.20
2022-09-28T07:45:45.248Z,9.20
2022-09-28T07:49:56.944Z,9.30
2022-09-28T07:54:06.535Z,9.30
2022-09-28T07:58:15.132Z,9.30
2022-09-28T08:02:24.305Z,9.30
2022-09-28T08:06:32.837Z,9.40
2022-09-28T08:10:47.160Z,9.50
2022-09-28T08:14:55.942Z,9.50
2022-09-28T08:19:05.375Z,9.60
2022-09-28T08:23:15.013Z,9.70
2022-09-28T08:27:23.550Z,9.90
2022-09-28T08:31:32.234Z,10.00
2022-09-28T08:35:44.043Z,10.10
2022-09-28T08:39:52.615Z,10.20
2022-09-28T08:44:13.730Z,10.30
2022-09-28T08:49:13.011Z,10.50
2022-09-28T08:53:02.247Z,10.50
2022-09-28T08:57:18.076Z,10.60
2022-09-28T09:01:30.264Z,10.60
2022-09-28T09:05:53.482Z,10.70
2022-09-28T09:10:13.690Z,10.80
2022-09-28T09:14:40.160Z,10.80
2022-09-28T09:18:51.834Z,10.70
2022-09-28T09:23:03.023Z,10.70
2022-09-28T09:27:20.827Z,10.70
2022-09-28T09:31:38.547Z,10.80
2022-09-28T09:36:02.311Z,11.00
2022-09-28T09:40:32.517Z,11.00
2022-09-28T09:44:56.601Z,11.00
2022-09-28T09:49:23.321Z,11.00
2022-09-28T09:53:56.197Z,11.00
2022-09-28T09:58:10.963Z,11.30
2022-09-28T10:02:30.944Z,11.50
2022-09-28T10:06:42.030Z,11.60
2022-09-28T10:10:59.114Z,11.60
2022-09-28T10:15:08.941Z,11.60
2022-09-28T10:19:20.026Z,11.50
2022-09-28T10:23:31.698Z,11.50
2022-09-28T10:27:44.972Z,11.40
2022-09-28T10:31:56.559Z,11.30
2022-09-28T10:36:08.117Z,11.30
2022-09-28T10:40:41.409Z,11.40
2022-09-28T10:45:29.021Z,11.60
2022-09-28T10:49:46.960Z,11.80
2022-09-28T10:54:02.500Z,12.00
2022-09-28T10:58:29.115Z,12.10
2022-09-28T11:02:40.777Z,12.10
2022-09-28T11:06:50.238Z,12.10
2022-09-28T11:11:21.759Z,12.10
2022-09-28T11:15:33.767Z,12.20
2022-09-28T11:19:42.328Z,12.40
2022-09-28T11:24:09.070Z,12.80
2022-09-28T11:28:20.777Z,12.90
2022-09-28T11:32:35.448Z,12.80
2022-09-28T11:36:52.900Z,12.80
2022-09-28T11:41:16.625Z,13.00
2022-09-28T11:45:29.346Z,13.30
2022-09-28T11:49:53.992Z,13.60
2022-09-28T11:54:13.347Z,13.80
2022-09-28T12:03:15.696Z,13.70
2022-09-28T12:07:30.130Z,13.60
2022-09-28T12:11:43.488Z,13.60
2022-09-28T12:16:38.377Z,13.40
2022-09-28T12:20:49.710Z,13.30
2022-09-28T12:25:01.549Z,13.20
2022-09-28T12:29:17.864Z,13.20
2022-09-28T12:33:45.102Z,13.20
2022-09-28T12:38:16.511Z,13.20
2022-09-28T12:42:56.850Z,13.20
2022-09-28T12:47:23.767Z,13.20
2022-09-28T12:52:05.920Z,13.20
2022-09-28T12:56:23.397Z,13.10
2022-09-28T13:00:41.156Z,13.10
2022-09-28T13:04:58.543Z,13.10
2022-09-28T13:09:24.819Z,13.10
2022-09-28T13:13:54.567Z,13.20
2022-09-28T13:18:15.263Z,13.30
2022-09-28T13:22:50.004Z,13.40
2022-09-28T13:27:02.919Z,13.50
2022-09-28T13:31:13.330Z,13.80
2022-09-28T13:35:22.061Z,13.80
2022-09-28T13:39:51.558Z,13.70
2022-09-28T13:44:16.844Z,13.50
2022-09-28T13:48:47.984Z,13.40
2022-09-28T13:53:02.702Z,13.20
2022-09-28T13:57:32.685Z,13.20
2022-09-28T14:01:44.417Z,13.10
2022-09-28T14:06:01.918Z,13.10
2022-09-28T14:10:25.885Z,12.90
2022-09-28T14:14:49.834Z,12.70
2022-09-28T14:19:10.221Z,12.60
2022-09-28T14:23:30.828Z,12.30
2022-09-28T14:27:51.248Z,12.10
2022-09-28T14:32:10.974Z,11.90
2022-09-28T14:36:47.006Z,11.80
2022-09-28T14:41:10.169Z,11.60
2022-09-28T14:45:21.401Z,11.60
2022-09-28T14:49:39.523Z,11.60
2022-09-28T14:58:28.808Z,11.60
2022-09-28T15:02:38.769Z,11.60
2022-09-28T15:06:49.677Z,11.70
2022-09-28T15:11:01.435Z,11.80
2022-09-28T15:15:30.538Z,11.90
2022-09-28T15:19:51.058Z,12.00
2022-09-28T15:23:59.698Z,12.00
2022-09-28T15:28:25.359Z,12.00
2022-09-28T15:32:33.925Z,11.90
2022-09-28T15:36:46.987Z,11.70
2022-09-28T15:40:56.193Z,11.70
2022-09-28T15:45:27.186Z,11.50
2022-09-28T15:49:44.286Z,11.40
2022-09-28T15:54:04.892Z,11.30
2022-09-28T15:58:20.235Z,11.20
2022-09-28T16:02:30.146Z,11.10
2022-09-28T16:06:38.679Z,11.00
2022-09-28T16:11:14.098Z,10.90
2022-09-28T16:15:28.552Z,10.80
2022-09-28T16:19:39.693Z,10.80
2022-09-28T16:23:55.190Z,10.70
2022-09-28T16:28:04.596Z,10.60
2022-09-28T16:32:33.709Z,10.70
2022-09-28T16:36:45.421Z,10.80
2022-09-28T16:40:54.575Z,10.80
2022-09-28T16:45:05.396Z,10.80
2022-09-28T16:49:26.895Z,10.90
2022-09-28T16:53:54.758Z,11.00
2022-09-28T16:58:05.180Z,11.00
2022-09-28T17:02:42.056Z,11.00
2022-09-28T17:06:29.494Z,11.10
2022-09-28T17:11:09.894Z,11.10
2022-09-28T17:14:56.423Z,11.10
2022-09-28T17:19:06.514Z,11.10
2022-09-28T17:23:16.027Z,11.10
2022-09-28T17:27:24.961Z,11.10
2022-09-28T17:31:33.541Z,11.10
2022-09-28T17:35:43.669Z,11.10
2022-09-28T17:39:52.223Z,11.10
2022-09-28T17:44:02.489Z,11.00
2022-09-28T17:48:16.646Z,10.90
2022-09-28T17:52:25.386Z,10.80
2022-09-28T17:56:35.269Z,10.80
2022-09-28T18:00:45.094Z,10.80
2022-09-28T18:04:54.087Z,10.80
2022-09-28T18:09:03.219Z,10.80
2022-09-28T18:13:11.880Z,10.70
2022-09-28T18:17:20.470Z,10.70
2022-09-28T18:21:30.659Z,10.70
2022-09-28T18:25:43.628Z,10.70
2022-09-28T18:29:52.268Z,10.60
2022-09-28T18:34:01.363Z,10.50
2022-09-28T18:38:10.621Z,10.40
2022-09-28T18:42:20.711Z,10.40
2022-09-28T18:46:32.484Z,10.40
2022-09-28T18:50:43.333Z,10.30
2022-09-28T18:54:51.982Z,10.30
2022-09-28T18:59:01.682Z,10.30
2022-09-28T19:03:14.291Z,10.20
2022-09-28T19:07:24.194Z,10.20
2022-09-28T19:11:32.849Z,10.20
2022-09-28T19:15:41.445Z,10.20
2022-09-28T19:19:51.253Z,10.20
2022-09-28T19:24:03.998Z,10.10
2022-09-28T19:28:12.608Z,10.00
2022-09-28T19:32:21.174Z,10.00
2022-09-28T19:36:30.085Z,9.90
2022-09-28T19:40:38.725Z,9.90
2022-09-28T19:44:47.401Z,9.80
2022-09-28T19:48:56.540Z,9.70
2022-09-28T19:53:06.740Z,9.60
2022-09-28T19:57:15.833Z,9.60
2022-09-28T20:01:24.772Z,9.50
2022-09-28T20:05:34.107Z,9.50
2022-09-28T20:09:42.677Z,9.50
2022-09-28T20:13:53.252Z,9.50
2022-09-28T20:18:01.838Z,9.50
2022-09-28T20:22:12.081Z,9.50
2022-09-28T20:26:21.174Z,9.50
2022-09-28T20:30:30.286Z,9.50
2022-09-28T20:34:38.847Z,9.50
2022-09-28T20:38:53.151Z,9.60
2022-09-28T20:43:01.787Z,9.50
2022-09-28T20:47:10.337Z,9.50
2022-09-28T20:51:22.624Z,9.50
2022-09-28T20:55:31.198Z,9.60
2022-09-28T20:59:40.256Z,9.50
2022-09-28T21:03:57.395Z,9.40
2022-09-28T21:08:05.973Z,9.40
2022-09-28T21:12:15.417Z,9.40
2022-09-28T21:16:23.984Z,9.40
2022-09-28T21:20:32.571Z,9.40
2022-09-28T21:24:41.147Z,9.40
2022-09-28T21:28:51.748Z,9.40
2022-09-28T21:33:01.951Z,9.40
2022-09-28T21:37:10.504Z,9.30
2022-09-28T21:41:19.095Z,9.30
2022-09-28T21:45:27.721Z,9.20
2022-09-28T21:49:36.303Z,9.20
2022-09-28T21:53:45.013Z,9.10
2022-09-28T21:57:53.573Z,9.10
2022-09-28T22:02:22.573Z,9.10
2022-09-28T22:06:31.117Z,9.10
2022-09-28T22:10:39.661Z,9.00
2022-09-28T22:14:48.227Z,9.00
2022-09-28T22:18:57.127Z,8.90
2022-09-28T22:23:05.761Z,8.90
2022-09-28T22:27:15.478Z,8.90
2022-09-28T22:31:30.033Z,8.90
2022-09-28T22:35:38.693Z,8.80
2022-09-28T22:39:47.259Z,8.80
2022-09-28T22:43:57.501Z,8.70
2022-09-28T22:48:06.068Z,8.70
2022-09-28T22:52:14.609Z,8.60
2022-09-28T22:56:23.316Z,8.60
2022-09-28T23:00:31.939Z,8.60
2022-09-28T23:04:40.518Z,8.60
2022-09-28T23:08:50.417Z,8.60
2022-09-28T23:12:59.218Z,8.50
2022-09-28T23:17:07.794Z,8.50
2022-09-28T23:21:18.815Z,8.50
2022-09-28T23:25:46.693Z,8.50
2022-09-28T23:29:55.264Z,8.50
2022-09-28T23:34:07.001Z,8.50
2022-09-28T23:38:20.783Z,8.50
2022-09-28T23:42:29.766Z,8.30
2022-09-28T23:46:38.784Z,8.30
2022-09-28T23:50:47.372Z,8.20
2022-09-28T23:54:55.966Z,8.20
2022-09-28T23:59:04.880Z,8.10
